sensor_id;sensor_type;location;lat;lon;timestamp;temperature;humidity
37410;DHT22;23275;48.914;12.566;2022-10-16T00:01:24;14.20;99.90
37410;DHT22;23275;48.914;12.566;2022-10-16T00:03:50;14.20;99.90
37410;DHT22;23275;48.914;12.566;2022-10-16T00:06:18;14.20;99.90
37410;DHT22;23275;48.914;12.566;2022-10-16T00:08:44;14.20;99.90
37410;DHT22;23275;48.914;12.566;2022-10-16T00:11:13;14.20;99.90
37410;DHT22;23275;48.914;12.566;2022-10-16T00:13:41;14.20;99.90
37410;DHT22;23275;48.914;12.566;2022-10-16T00:16:07;14.20;99.90
37410;DHT22;23275;48.914;12.566;2022-10-16T00:18:34;14.20;99.90
37410;DHT22;23275;48.914;12.566;2022-10-16T00:21:11;14.20;99.90
37410;DHT22;23275;48.914;12.566;2022-10-16T00:23:38;14.20;99.90
37410;DHT22;23275;48.914;12.566;2022-10-16T00:26:07;14.20;99.90
37410;DHT22;23275;48.914;12.566;2022-10-16T00:28:32;14.20;99.90
37410;DHT22;23275;48.914;12.566;2022-10-16T00:30:58;14.20;99.90
37410;DHT22;23275;48.914;12.566;2022-10-16T00:33:24;14.20;99.90
37410;DHT22;23275;48.914;12.566;2022-10-16T00:35:50;14.20;99.90
37410;DHT22;23275;48.914;12.566;2022-10-16T00:38:16;14.20;99.90
37410;DHT22;23275;48.914;12.566;2022-10-16T00:40:42;14.20;99.90
37410;DHT22;23275;48.914;12.566;2022-10-16T00:46:04;14.20;99.90
37410;DHT22;23275;48.914;12.566;2022-10-16T00:48:30;14.10;99.90
37410;DHT22;23275;48.914;12.566;2022-10-16T00:50:57;14.10;99.90
37410;DHT22;23275;48.914;12.566;2022-10-16T00:53:25;14.10;99.90
37410;DHT22;23275;48.914;12.566;2022-10-16T00:55:52;14.10;99.90
37410;DHT22;23275;48.914;12.566;2022-10-16T00:58:18;14.10;99.90
37410;DHT22;23275;48.914;12.566;2022-10-16T01:00:44;14.10;99.90
37410;DHT22;23275;48.914;12.566;2022-10-16T01:03:32;14.10;99.90
37410;DHT22;23275;48.914;12.566;2022-10-16T01:06:21;14.10;99.90
37410;DHT22;23275;48.914;12.566;2022-10-16T01:09:10;14.10;99.90
37410;DHT22;23275;48.914;12.566;2022-10-16T01:17:00;14.10;99.90
37410;DHT22;23275;48.914;12.566;2022-10-16T01:22:25;14.00;99.90
37410;DHT22;23275;48.914;12.566;2022-10-16T01:24:58;14.00;99.90
37410;DHT22;23275;48.914;12.566;2022-10-16T01:27:27;13.90;99.90
37410;DHT22;23275;48.914;12.566;2022-10-16T01:29:59;13.90;99.90
37410;DHT22;23275;48.914;12.566;2022-10-16T01:32:55;13.90;99.90
37410;DHT22;23275;48.914;12.566;2022-10-16T01:35:45;13.90;99.90
37410;DHT22;23275;48.914;12.566;2022-10-16T01:38:15;13.80;99.90
37410;DHT22;23275;48.914;12.566;2022-10-16T01:40:45;13.80;99.90
37410;DHT22;23275;48.914;12.566;2022-10-16T01:43:19;13.80;99.90
37410;DHT22;23275;48.914;12.566;2022-10-16T01:45:46;13.70;99.90
37410;DHT22;23275;48.914;12.566;2022-10-16T01:48:17;13.70;99.90
37410;DHT22;23275;48.914;12.566;2022-10-16T01:50:56;13.70;99.90
37410;DHT22;23275;48.914;12.566;2022-10-16T01:53:23;13.70;99.90
37410;DHT22;23275;48.914;12.566;2022-10-16T01:55:50;13.80;99.90
37410;DHT22;23275;48.914;12.566;2022-10-16T01:58:17;13.80;99.90
37410;DHT22;23275;48.914;12.566;2022-10-16T02:00:44;13.80;99.90
37410;DHT22;23275;48.914;12.566;2022-10-16T02:03:13;13.80;99.90
37410;DHT22;23275;48.914;12.566;2022-10-16T02:05:50;13.80;99.90
37410;DHT22;23275;48.914;12.566;2022-10-16T02:08:17;13.80;99.90
37410;DHT22;23275;48.914;12.566;2022-10-16T02:10:43;13.70;99.90
37410;DHT22;23275;48.914;12.566;2022-10-16T02:13:17;13.70;99.90
37410;DHT22;23275;48.914;12.566;2022-10-16T02:15:45;13.70;99.90
37410;DHT22;23275;48.914;12.566;2022-10-16T02:18:11;13.70;99.90
37410;DHT22;23275;48.914;12.566;2022-10-16T02:20:43;13.70;99.90
37410;DHT22;23275;48.914;12.566;2022-10-16T02:23:14;13.70;99.90
37410;DHT22;23275;48.914;12.566;2022-10-16T02:25:44;13.70;99.90
37410;DHT22;23275;48.914;12.566;2022-10-16T02:28:19;13.60;99.90
37410;DHT22;23275;48.914;12.566;2022-10-16T02:30:57;13.60;99.90
37410;DHT22;23275;48.914;12.566;2022-10-16T02:33:25;13.60;99.90
37410;DHT22;23275;48.914;12.566;2022-10-16T02:35:52;13.60;99.90
37410;DHT22;23275;48.914;12.566;2022-10-16T02:38:20;13.60;99.90
37410;DHT22;23275;48.914;12.566;2022-10-16T02:40:46;13.60;99.90
37410;DHT22;23275;48.914;12.566;2022-10-16T02:43:12;13.50;99.90
37410;DHT22;23275;48.914;12.566;2022-10-16T02:45:37;13.50;99.90
37410;DHT22;23275;48.914;12.566;2022-10-16T02:48:03;13.50;99.90
37410;DHT22;23275;48.914;12.566;2022-10-16T02:50:29;13.50;99.90
37410;DHT22;23275;48.914;12.566;2022-10-16T02:52:54;13.40;99.90
37410;DHT22;23275;48.914;12.566;2022-10-16T02:55:20;13.40;99.90
37410;DHT22;23275;48.914;12.566;2022-10-16T02:57:45;13.30;99.90
37410;DHT22;23275;48.914;12.566;2022-10-16T03:00:13;13.30;99.90
37410;DHT22;23275;48.914;12.566;2022-10-16T03:02:39;13.40;99.90
37410;DHT22;23275;48.914;12.566;2022-10-16T03:05:05;13.30;99.90
37410;DHT22;23275;48.914;12.566;2022-10-16T03:07:31;13.30;99.90
37410;DHT22;23275;48.914;12.566;2022-10-16T03:09:56;13.30;99.90
37410;DHT22;23275;48.914;12.566;2022-10-16T03:12:26;13.30;99.90
37410;DHT22;23275;48.914;12.566;2022-10-16T03:14:51;13.20;99.90
37410;DHT22;23275;48.914;12.566;2022-10-16T03:17:17;13.20;99.90
37410;DHT22;23275;48.914;12.566;2022-10-16T03:19:42;13.20;99.90
37410;DHT22;23275;48.914;12.566;2022-10-16T03:22:08;13.20;99.90
37410;DHT22;23275;48.914;12.566;2022-10-16T03:24:33;13.20;99.90
37410;DHT22;23275;48.914;12.566;2022-10-16T03:26:59;13.20;99.90
37410;DHT22;23275;48.914;12.566;2022-10-16T03:29:25;13.10;99.90
37410;DHT22;23275;48.914;12.566;2022-10-16T03:31:51;13.10;99.90
37410;DHT22;23275;48.914;12.566;2022-10-16T03:34:17;13.10;99.90
37410;DHT22;23275;48.914;12.566;2022-10-16T03:36:42;13.10;99.90
37410;DHT22;23275;48.914;12.566;2022-10-16T03:39:08;13.10;99.90
37410;DHT22;23275;48.914;12.566;2022-10-16T03:41:33;13.00;99.90
37410;DHT22;23275;48.914;12.566;2022-10-16T03:43:59;13.00;99.90
37410;DHT22;23275;48.914;12.566;2022-10-16T03:46:24;13.00;99.90
37410;DHT22;23275;48.914;12.566;2022-10-16T03:48:50;13.10;99.90
37410;DHT22;23275;48.914;12.566;2022-10-16T03:51:15;13.10;99.90
37410;DHT22;23275;48.914;12.566;2022-10-16T03:53:41;13.10;99.90
37410;DHT22;23275;48.914;12.566;2022-10-16T03:56:07;13.20;99.90
37410;DHT22;23275;48.914;12.566;2022-10-16T03:58:32;13.20;99.90
37410;DHT22;23275;48.914;12.566;2022-10-16T04:00:58;13.20;99.90
37410;DHT22;23275;48.914;12.566;2022-10-16T04:03:24;13.10;99.90
37410;DHT22;23275;48.914;12.566;2022-10-16T04:05:49;13.20;99.90
37410;DHT22;23275;48.914;12.566;2022-10-16T04:08:15;13.10;99.90
37410;DHT22;23275;48.914;12.566;2022-10-16T04:10:42;13.00;99.90
37410;DHT22;23275;48.914;12.566;2022-10-16T04:13:08;13.00;99.90
37410;DHT22;23275;48.914;12.566;2022-10-16T04:15:34;12.90;99.90
37410;DHT22;23275;48.914;12.566;2022-10-16T04:18:00;12.80;99.90
37410;DHT22;23275;48.914;12.566;2022-10-16T04:20:26;12.80;99.90
37410;DHT22;23275;48.914;12.566;2022-10-16T04:22:51;12.80;99.90
37410;DHT22;23275;48.914;12.566;2022-10-16T04:25:17;12.70;99.90
37410;DHT22;23275;48.914;12.566;2022-10-16T04:27:42;12.60;99.90
37410;DHT22;23275;48.914;12.566;2022-10-16T04:30:08;12.60;99.90
37410;DHT22;23275;48.914;12.566;2022-10-16T04:32:34;12.60;99.90
37410;DHT22;23275;48.914;12.566;2022-10-16T04:34:59;12.50;99.90
37410;DHT22;23275;48.914;12.566;2022-10-16T04:37:26;12.60;99.90
37410;DHT22;23275;48.914;12.566;2022-10-16T04:39:52;12.60;99.90
37410;DHT22;23275;48.914;12.566;2022-10-16T04:42:18;12.60;99.90
37410;DHT22;23275;48.914;12.566;2022-10-16T04:44:43;12.70;99.90
37410;DHT22;23275;48.914;12.566;2022-10-16T04:47:09;12.70;99.90
37410;DHT22;23275;48.914;12.566;2022-10-16T04:49:34;12.70;99.90
37410;DHT22;23275;48.914;12.566;2022-10-16T04:52:00;12.70;99.90
37410;DHT22;23275;48.914;12.566;2022-10-16T04:54:26;12.70;99.90
37410;DHT22;23275;48.914;12.566;2022-10-16T04:56:51;12.80;99.90
37410;DHT22;23275;48.914;12.566;2022-10-16T04:59:18;12.80;99.90
37410;DHT22;23275;48.914;12.566;2022-10-16T05:01:44;12.80;99.90
37410;DHT22;23275;48.914;12.566;2022-10-16T05:04:10;12.80;99.90
37410;DHT22;23275;48.914;12.566;2022-10-16T05:06:37;12.80;99.90
37410;DHT22;23275;48.914;12.566;2022-10-16T05:09:04;12.80;99.90
37410;DHT22;23275;48.914;12.566;2022-10-16T05:11:30;12.90;99.90
37410;DHT22;23275;48.914;12.566;2022-10-16T05:13:56;13.00;99.90
37410;DHT22;23275;48.914;12.566;2022-10-16T05:16:21;12.90;99.90
37410;DHT22;23275;48.914;12.566;2022-10-16T05:18:47;12.90;99.90
37410;DHT22;23275;48.914;12.566;2022-10-16T05:21:12;12.90;99.90
37410;DHT22;23275;48.914;12.566;2022-10-16T05:23:38;12.90;99.90
37410;DHT22;23275;48.914;12.566;2022-10-16T05:26:03;12.90;99.90
37410;DHT22;23275;48.914;12.566;2022-10-16T05:28:29;12.90;99.90
37410;DHT22;23275;48.914;12.566;2022-10-16T05:30:56;13.00;99.90
37410;DHT22;23275;48.914;12.566;2022-10-16T05:33:23;12.90;99.90
37410;DHT22;23275;48.914;12.566;2022-10-16T05:35:49;13.00;99.90
37410;DHT22;23275;48.914;12.566;2022-10-16T05:38:16;13.00;99.90
37410;DHT22;23275;48.914;12.566;2022-10-16T05:40:42;13.00;99.90
37410;DHT22;23275;48.914;12.566;2022-10-16T05:43:08;13.00;99.90
37410;DHT22;23275;48.914;12.566;2022-10-16T05:45:33;13.00;99.90
37410;DHT22;23275;48.914;12.566;2022-10-16T05:47:59;12.90;99.90
37410;DHT22;23275;48.914;12.566;2022-10-16T05:50:27;12.90;99.90
37410;DHT22;23275;48.914;12.566;2022-10-16T05:52:52;12.90;99.90
37410;DHT22;23275;48.914;12.566;2022-10-16T05:55:18;12.90;99.90
37410;DHT22;23275;48.914;12.566;2022-10-16T05:57:44;13.00;99.90
37410;DHT22;23275;48.914;12.566;2022-10-16T06:00:11;12.90;99.90
37410;DHT22;23275;48.914;12.566;2022-10-16T06:02:36;12.90;99.90
37410;DHT22;23275;48.914;12.566;2022-10-16T06:05:03;12.90;99.90
37410;DHT22;23275;48.914;12.566;2022-10-16T06:07:34;12.90;99.90
37410;DHT22;23275;48.914;12.566;2022-10-16T06:09:59;12.90;99.90
37410;DHT22;23275;48.914;12.566;2022-10-16T06:12:26;12.90;99.90
37410;DHT22;23275;48.914;12.566;2022-10-16T06:14:52;12.90;99.90
37410;DHT22;23275;48.914;12.566;2022-10-16T06:17:18;13.00;99.90
37410;DHT22;23275;48.914;12.566;2022-10-16T06:19:43;13.10;99.90
37410;DHT22;23275;48.914;12.566;2022-10-16T06:22:09;13.20;99.90
37410;DHT22;23275;48.914;12.566;2022-10-16T06:24:35;13.40;99.90
37410;DHT22;23275;48.914;12.566;2022-10-16T06:27:00;13.60;99.90
37410;DHT22;23275;48.914;12.566;2022-10-16T06:29:26;13.70;99.90
37410;DHT22;23275;48.914;12.566;2022-10-16T06:31:51;13.70;99.90
37410;DHT22;23275;48.914;12.566;2022-10-16T06:34:18;13.80;99.90
37410;DHT22;23275;48.914;12.566;2022-10-16T06:36:44;13.90;99.90
37410;DHT22;23275;48.914;12.566;2022-10-16T06:39:10;13.80;99.90
37410;DHT22;23275;48.914;12.566;2022-10-16T06:41:36;13.80;99.90
37410;DHT22;23275;48.914;12.566;2022-10-16T06:44:05;13.80;99.90
37410;DHT22;23275;48.914;12.566;2022-10-16T06:46:31;13.80;99.90
37410;DHT22;23275;48.914;12.566;2022-10-16T06:48:57;13.80;99.90
37410;DHT22;23275;48.914;12.566;2022-10-16T06:51:23;13.70;99.90
37410;DHT22;23275;48.914;12.566;2022-10-16T06:53:51;13.70;99.90
37410;DHT22;23275;48.914;12.566;2022-10-16T06:56:25;13.80;99.90
37410;DHT22;23275;48.914;12.566;2022-10-16T06:58:52;14.00;99.90
37410;DHT22;23275;48.914;12.566;2022-10-16T07:01:20;14.00;99.90
37410;DHT22;23275;48.914;12.566;2022-10-16T07:03:46;14.10;99.90
37410;DHT22;23275;48.914;12.566;2022-10-16T07:06:14;14.20;99.90
37410;DHT22;23275;48.914;12.566;2022-10-16T07:08:43;14.30;99.90
37410;DHT22;23275;48.914;12.566;2022-10-16T07:11:12;14.30;99.90
37410;DHT22;23275;48.914;12.566;2022-10-16T07:13:39;14.40;99.90
37410;DHT22;23275;48.914;12.566;2022-10-16T07:18:34;14.60;99.90
37410;DHT22;23275;48.914;12.566;2022-10-16T07:21:14;14.80;99.90
37410;DHT22;23275;48.914;12.566;2022-10-16T07:23:40;15.00;99.90
37410;DHT22;23275;48.914;12.566;2022-10-16T07:26:06;15.10;99.90
37410;DHT22;23275;48.914;12.566;2022-10-16T07:28:32;15.40;99.90
37410;DHT22;23275;48.914;12.566;2022-10-16T07:31:02;15.60;99.90
37410;DHT22;23275;48.914;12.566;2022-10-16T07:33:28;15.70;99.90
37410;DHT22;23275;48.914;12.566;2022-10-16T07:35:55;15.70;99.90
37410;DHT22;23275;48.914;12.566;2022-10-16T07:38:21;15.80;99.90
37410;DHT22;23275;48.914;12.566;2022-10-16T07:40:47;15.90;99.90
37410;DHT22;23275;48.914;12.566;2022-10-16T07:43:13;16.20;99.90
37410;DHT22;23275;48.914;12.566;2022-10-16T07:45:47;16.50;99.90
37410;DHT22;23275;48.914;12.566;2022-10-16T07:48:13;16.80;99.90
37410;DHT22;23275;48.914;12.566;2022-10-16T07:50:39;17.00;99.90
37410;DHT22;23275;48.914;12.566;2022-10-16T07:53:04;16.90;99.90
37410;DHT22;23275;48.914;12.566;2022-10-16T07:55:31;16.80;99.90
37410;DHT22;23275;48.914;12.566;2022-10-16T07:57:57;16.60;99.90
37410;DHT22;23275;48.914;12.566;2022-10-16T08:00:22;16.50;99.90
37410;DHT22;23275;48.914;12.566;2022-10-16T08:02:48;16.50;99.90
37410;DHT22;23275;48.914;12.566;2022-10-16T08:05:13;16.90;99.90
37410;DHT22;23275;48.914;12.566;2022-10-16T08:07:39;17.20;99.90
37410;DHT22;23275;48.914;12.566;2022-10-16T08:10:04;17.50;99.90
37410;DHT22;23275;48.914;12.566;2022-10-16T08:12:30;18.00;99.90
37410;DHT22;23275;48.914;12.566;2022-10-16T08:14:56;18.70;99.90
37410;DHT22;23275;48.914;12.566;2022-10-16T08:17:21;19.60;99.90
37410;DHT22;23275;48.914;12.566;2022-10-16T08:19:47;20.70;99.90
37410;DHT22;23275;48.914;12.566;2022-10-16T08:22:14;22.00;99.90
37410;DHT22;23275;48.914;12.566;2022-10-16T08:24:40;22.80;99.90
37410;DHT22;23275;48.914;12.566;2022-10-16T08:27:07;23.50;99.90
37410;DHT22;23275;48.914;12.566;2022-10-16T08:29:34;24.20;99.90
37410;DHT22;23275;48.914;12.566;2022-10-16T08:31:59;24.10;99.90
37410;DHT22;23275;48.914;12.566;2022-10-16T08:34:25;23.70;99.90
37410;DHT22;23275;48.914;12.566;2022-10-16T08:36:55;24.10;99.90
37410;DHT22;23275;48.914;12.566;2022-10-16T08:39:20;24.30;99.90
37410;DHT22;23275;48.914;12.566;2022-10-16T08:42:04;24.60;99.90
37410;DHT22;23275;48.914;12.566;2022-10-16T08:44:40;25.20;99.90
37410;DHT22;23275;48.914;12.566;2022-10-16T08:49:41;25.00;99.90
37410;DHT22;23275;48.914;12.566;2022-10-16T08:52:12;24.80;99.90
37410;DHT22;23275;48.914;12.566;2022-10-16T08:54:43;24.30;99.90
37410;DHT22;23275;48.914;12.566;2022-10-16T08:57:21;24.10;99.90
37410;DHT22;23275;48.914;12.566;2022-10-16T08:59:47;23.30;99.90
37410;DHT22;23275;48.914;12.566;2022-10-16T09:02:40;22.50;99.90
37410;DHT22;23275;48.914;12.566;2022-10-16T09:05:17;21.70;99.90
37410;DHT22;23275;48.914;12.566;2022-10-16T09:08:00;21.00;99.90
37410;DHT22;23275;48.914;12.566;2022-10-16T09:10:46;20.50;99.90
37410;DHT22;23275;48.914;12.566;2022-10-16T09:16:14;21.40;99.90
37410;DHT22;23275;48.914;12.566;2022-10-16T09:18:54;22.80;99.90
37410;DHT22;23275;48.914;12.566;2022-10-16T09:21:29;24.50;99.90
37410;DHT22;23275;48.914;12.566;2022-10-16T09:23:59;25.40;99.90
37410;DHT22;23275;48.914;12.566;2022-10-16T09:26:29;26.50;99.90
37410;DHT22;23275;48.914;12.566;2022-10-16T09:28:55;27.50;99.90
37410;DHT22;23275;48.914;12.566;2022-10-16T09:31:22;28.90;99.90
37410;DHT22;23275;48.914;12.566;2022-10-16T09:33:52;30.30;99.90
37410;DHT22;23275;48.914;12.566;2022-10-16T09:36:20;30.60;99.90
37410;DHT22;23275;48.914;12.566;2022-10-16T09:38:46;31.80;99.90
37410;DHT22;23275;48.914;12.566;2022-10-16T09:46:25;34.20;94.80
37410;DHT22;23275;48.914;12.566;2022-10-16T09:48:56;34.40;93.20
37410;DHT22;23275;48.914;12.566;2022-10-16T09:51:30;34.20;92.30
37410;DHT22;23275;48.914;12.566;2022-10-16T09:54:02;34.30;91.20
37410;DHT22;23275;48.914;12.566;2022-10-16T09:56:30;34.80;89.80
37410;DHT22;23275;48.914;12.566;2022-10-16T09:58:59;34.50;89.20
37410;DHT22;23275;48.914;12.566;2022-10-16T10:01:54;34.90;88.70
37410;DHT22;23275;48.914;12.566;2022-10-16T10:04:23;35.20;86.20
37410;DHT22;23275;48.914;12.566;2022-10-16T10:06:54;34.80;82.10
37410;DHT22;23275;48.914;12.566;2022-10-16T10:09:24;34.00;85.20
37410;DHT22;23275;48.914;12.566;2022-10-16T10:11:56;33.80;87.10
37410;DHT22;23275;48.914;12.566;2022-10-16T10:16:51;34.20;84.20
37410;DHT22;23275;48.914;12.566;2022-10-16T10:19:23;34.90;83.00
37410;DHT22;23275;48.914;12.566;2022-10-16T10:21:50;35.60;78.40
37410;DHT22;23275;48.914;12.566;2022-10-16T10:24:18;35.50;78.60
37410;DHT22;23275;48.914;12.566;2022-10-16T10:30:40;35.80;79.50
37410;DHT22;23275;48.914;12.566;2022-10-16T10:38:44;35.10;78.30
37410;DHT22;23275;48.914;12.566;2022-10-16T10:44:11;33.50;81.00
37410;DHT22;23275;48.914;12.566;2022-10-16T10:57:29;25.10;98.20
37410;DHT22;23275;48.914;12.566;2022-10-16T11:02:39;23.50;99.90
37410;DHT22;23275;48.914;12.566;2022-10-16T11:05:23;22.90;99.90
37410;DHT22;23275;48.914;12.566;2022-10-16T11:08:00;22.60;99.90
37410;DHT22;23275;48.914;12.566;2022-10-16T11:13:25;22.30;99.90
37410;DHT22;23275;48.914;12.566;2022-10-16T11:15:55;22.00;99.90
37410;DHT22;23275;48.914;12.566;2022-10-16T11:21:10;21.60;99.90
37410;DHT22;23275;48.914;12.566;2022-10-16T11:24:01;21.50;99.90
37410;DHT22;23275;48.914;12.566;2022-10-16T11:26:34;21.40;99.90
37410;DHT22;23275;48.914;12.566;2022-10-16T11:29:02;21.40;99.90
37410;DHT22;23275;48.914;12.566;2022-10-16T11:31:45;21.30;99.90
37410;DHT22;23275;48.914;12.566;2022-10-16T11:37:06;21.20;99.90
37410;DHT22;23275;48.914;12.566;2022-10-16T11:39:34;21.30;99.90
37410;DHT22;23275;48.914;12.566;2022-10-16T11:42:07;21.20;99.90
37410;DHT22;23275;48.914;12.566;2022-10-16T11:44:55;21.30;99.90
37410;DHT22;23275;48.914;12.566;2022-10-16T11:47:36;21.30;99.90
37410;DHT22;23275;48.914;12.566;2022-10-16T11:50:13;21.40;99.90
37410;DHT22;23275;48.914;12.566;2022-10-16T11:55:45;21.20;99.90
37410;DHT22;23275;48.914;12.566;2022-10-16T11:58:36;21.40;99.90
37410;DHT22;23275;48.914;12.566;2022-10-16T12:03:39;21.80;99.90
37410;DHT22;23275;48.914;12.566;2022-10-16T12:08:35;21.70;99.90
37410;DHT22;23275;48.914;12.566;2022-10-16T12:13:47;21.60;99.90
37410;DHT22;23275;48.914;12.566;2022-10-16T12:18:46;21.30;99.90
37410;DHT22;23275;48.914;12.566;2022-10-16T12:21:13;21.40;99.90
37410;DHT22;23275;48.914;12.566;2022-10-16T12:23:50;21.40;99.90
37410;DHT22;23275;48.914;12.566;2022-10-16T12:26:31;21.30;99.90
37410;DHT22;23275;48.914;12.566;2022-10-16T12:29:14;21.30;99.90
37410;DHT22;23275;48.914;12.566;2022-10-16T12:31:45;21.20;99.90
37410;DHT22;23275;48.914;12.566;2022-10-16T12:34:23;21.10;99.90
37410;DHT22;23275;48.914;12.566;2022-10-16T12:36:51;21.00;99.90
37410;DHT22;23275;48.914;12.566;2022-10-16T12:39:27;20.90;99.90
37410;DHT22;23275;48.914;12.566;2022-10-16T12:42:06;20.90;99.90
37410;DHT22;23275;48.914;12.566;2022-10-16T12:44:44;20.80;99.90
37410;DHT22;23275;48.914;12.566;2022-10-16T12:47:21;20.70;99.90
37410;DHT22;23275;48.914;12.566;2022-10-16T12:49:54;20.70;99.90
37410;DHT22;23275;48.914;12.566;2022-10-16T12:52:35;20.70;99.90
37410;DHT22;23275;48.914;12.566;2022-10-16T12:55:02;20.80;99.90
37410;DHT22;23275;48.914;12.566;2022-10-16T13:00:45;20.90;99.90
37410;DHT22;23275;48.914;12.566;2022-10-16T13:21:49;21.20;99.90
37410;DHT22;23275;48.914;12.566;2022-10-16T13:29:30;21.30;99.90
37410;DHT22;23275;48.914;12.566;2022-10-16T13:31:58;21.20;99.90
37410;DHT22;23275;48.914;12.566;2022-10-16T13:34:24;21.20;99.90
37410;DHT22;23275;48.914;12.566;2022-10-16T13:36:52;21.10;99.90
37410;DHT22;23275;48.914;12.566;2022-10-16T13:41:57;21.00;99.90
37410;DHT22;23275;48.914;12.566;2022-10-16T13:44:23;20.90;99.90
37410;DHT22;23275;48.914;12.566;2022-10-16T13:46:58;20.90;99.90
37410;DHT22;23275;48.914;12.566;2022-10-16T13:49:24;20.80;99.90
37410;DHT22;23275;48.914;12.566;2022-10-16T13:52:00;20.80;99.90
37410;DHT22;23275;48.914;12.566;2022-10-16T13:54:27;20.70;99.90
37410;DHT22;23275;48.914;12.566;2022-10-16T13:56:54;20.60;99.90
37410;DHT22;23275;48.914;12.566;2022-10-16T13:59:32;20.50;99.90
37410;DHT22;23275;48.914;12.566;2022-10-16T14:01:59;20.40;99.90
37410;DHT22;23275;48.914;12.566;2022-10-16T14:04:29;20.40;99.90
37410;DHT22;23275;48.914;12.566;2022-10-16T14:06:56;20.40;99.90
37410;DHT22;23275;48.914;12.566;2022-10-16T14:09:27;20.30;99.90
37410;DHT22;23275;48.914;12.566;2022-10-16T14:11:57;20.30;99.90
37410;DHT22;23275;48.914;12.566;2022-10-16T14:14:23;20.30;99.90
37410;DHT22;23275;48.914;12.566;2022-10-16T14:16:49;20.20;99.90
37410;DHT22;23275;48.914;12.566;2022-10-16T14:19:27;20.20;99.90
37410;DHT22;23275;48.914;12.566;2022-10-16T14:21:54;20.10;99.90
37410;DHT22;23275;48.914;12.566;2022-10-16T14:24:27;20.00;99.90
37410;DHT22;23275;48.914;12.566;2022-10-16T14:26:53;19.90;99.90
37410;DHT22;23275;48.914;12.566;2022-10-16T14:29:22;19.90;99.90
37410;DHT22;23275;48.914;12.566;2022-10-16T14:32:22;19.90;99.90
37410;DHT22;23275;48.914;12.566;2022-10-16T14:34:53;19.80;99.90
37410;DHT22;23275;48.914;12.566;2022-10-16T14:37:26;19.80;99.90
37410;DHT22;23275;48.914;12.566;2022-10-16T14:39:53;19.80;99.90
37410;DHT22;23275;48.914;12.566;2022-10-16T14:42:22;19.80;99.90
37410;DHT22;23275;48.914;12.566;2022-10-16T14:44:52;19.80;99.90
37410;DHT22;23275;48.914;12.566;2022-10-16T14:47:21;19.80;99.90
37410;DHT22;23275;48.914;12.566;2022-10-16T14:49:50;19.70;99.90
37410;DHT22;23275;48.914;12.566;2022-10-16T14:52:16;19.70;99.90
37410;DHT22;23275;48.914;12.566;2022-10-16T14:54:42;19.70;99.90
37410;DHT22;23275;48.914;12.566;2022-10-16T14:57:19;19.70;99.90
37410;DHT22;23275;48.914;12.566;2022-10-16T14:59:46;19.70;99.90
37410;DHT22;23275;48.914;12.566;2022-10-16T15:02:27;19.60;99.90
37410;DHT22;23275;48.914;12.566;2022-10-16T15:04:53;19.60;99.90
37410;DHT22;23275;48.914;12.566;2022-10-16T15:07:18;19.50;99.90
37410;DHT22;23275;48.914;12.566;2022-10-16T15:09:44;19.50;99.90
37410;DHT22;23275;48.914;12.566;2022-10-16T15:12:10;19.40;99.90
37410;DHT22;23275;48.914;12.566;2022-10-16T15:14:35;19.30;99.90
37410;DHT22;23275;48.914;12.566;2022-10-16T15:17:02;19.30;99.90
37410;DHT22;23275;48.914;12.566;2022-10-16T15:19:28;19.30;99.90
37410;DHT22;23275;48.914;12.566;2022-10-16T15:21:54;19.20;99.90
37410;DHT22;23275;48.914;12.566;2022-10-16T15:24:19;19.20;99.90
37410;DHT22;23275;48.914;12.566;2022-10-16T15:26:45;19.20;99.90
37410;DHT22;23275;48.914;12.566;2022-10-16T15:29:14;19.20;99.90
37410;DHT22;23275;48.914;12.566;2022-10-16T15:31:40;19.20;99.90
37410;DHT22;23275;48.914;12.566;2022-10-16T15:34:09;19.20;99.90
37410;DHT22;23275;48.914;12.566;2022-10-16T15:36:36;19.10;99.90
37410;DHT22;23275;48.914;12.566;2022-10-16T15:39:04;19.10;99.90
37410;DHT22;23275;48.914;12.566;2022-10-16T15:41:30;19.00;99.90
37410;DHT22;23275;48.914;12.566;2022-10-16T15:43:55;19.00;99.90
37410;DHT22;23275;48.914;12.566;2022-10-16T15:46:23;18.90;99.90
37410;DHT22;23275;48.914;12.566;2022-10-16T15:48:49;18.90;99.90
37410;DHT22;23275;48.914;12.566;2022-10-16T15:51:16;18.80;99.90
37410;DHT22;23275;48.914;12.566;2022-10-16T15:53:42;18.70;99.90
37410;DHT22;23275;48.914;12.566;2022-10-16T15:56:10;18.60;99.90
37410;DHT22;23275;48.914;12.566;2022-10-16T15:58:36;18.50;99.90
37410;DHT22;23275;48.914;12.566;2022-10-16T16:01:02;18.40;99.90
37410;DHT22;23275;48.914;12.566;2022-10-16T16:03:31;18.30;99.90
37410;DHT22;23275;48.914;12.566;2022-10-16T16:05:57;18.20;99.90
37410;DHT22;23275;48.914;12.566;2022-10-16T16:08:23;18.10;99.90
37410;DHT22;23275;48.914;12.566;2022-10-16T16:11:02;18.00;99.90
37410;DHT22;23275;48.914;12.566;2022-10-16T16:13:28;18.00;99.90
37410;DHT22;23275;48.914;12.566;2022-10-16T16:15:53;17.90;99.90
37410;DHT22;23275;48.914;12.566;2022-10-16T16:18:19;17.80;99.90
37410;DHT22;23275;48.914;12.566;2022-10-16T16:20:45;17.80;99.90
37410;DHT22;23275;48.914;12.566;2022-10-16T16:23:11;17.80;99.90
37410;DHT22;23275;48.914;12.566;2022-10-16T16:25:38;17.70;99.90
37410;DHT22;23275;48.914;12.566;2022-10-16T16:28:03;17.70;99.90
37410;DHT22;23275;48.914;12.566;2022-10-16T16:30:29;17.60;99.90
37410;DHT22;23275;48.914;12.566;2022-10-16T16:32:54;17.50;99.90
37410;DHT22;23275;48.914;12.566;2022-10-16T16:35:20;17.50;99.90
37410;DHT22;23275;48.914;12.566;2022-10-16T16:37:47;17.40;99.90
37410;DHT22;23275;48.914;12.566;2022-10-16T16:40:12;17.40;99.90
37410;DHT22;23275;48.914;12.566;2022-10-16T16:42:38;17.30;99.90
37410;DHT22;23275;48.914;12.566;2022-10-16T16:45:04;17.30;99.90
37410;DHT22;23275;48.914;12.566;2022-10-16T16:47:30;17.20;99.90
37410;DHT22;23275;48.914;12.566;2022-10-16T16:49:56;17.10;99.90
37410;DHT22;23275;48.914;12.566;2022-10-16T16:52:22;17.00;99.90
37410;DHT22;23275;48.914;12.566;2022-10-16T16:54:48;16.90;99.90
37410;DHT22;23275;48.914;12.566;2022-10-16T16:57:20;16.80;99.90
37410;DHT22;23275;48.914;12.566;2022-10-16T16:59:46;16.80;99.90
37410;DHT22;23275;48.914;12.566;2022-10-16T17:02:11;16.80;99.90
37410;DHT22;23275;48.914;12.566;2022-10-16T17:04:37;16.70;99.90
37410;DHT22;23275;48.914;12.566;2022-10-16T17:07:02;16.60;99.90
37410;DHT22;23275;48.914;12.566;2022-10-16T17:09:28;16.60;99.90